Time;durP1;ratioP1;P1;durP2;ratioP2;P2;SDS_P1;SDS_P2;PMS_P1;PMS_P2;Temp;Humidity;BMP_temperature;BMP_pressure;BME280_temperature;BME280_humidity;BME280_pressure;Samples;Min_cycle;Max_cycle;Signal;HPM_P1;HPM_P2
2021/11/07 00:00:45;;;;;;;14.20;7.75;;;9.40;74.70;;;;;;2339284;54;20973;-69
2021/11/07 00:03:21;;;;;;;13.83;7.53;;;9.40;74.70;;;;;;2318284;54;21012;-69
2021/11/07 00:06:37;;;;;;;13.90;7.10;;;9.40;74.70;;;;;;2339504;54;20957;-69
2021/11/07 00:09:19;;;;;;;12.80;7.20;;;9.50;74.70;;;;;;2323498;54;20973;-68
2021/11/07 00:11:51;;;;;;;15.95;7.28;;;9.50;74.70;;;;;;2558128;53;20992;-68
2021/11/07 00:14:19;;;;;;;13.10;6.80;;;9.50;74.70;;;;;;2328294;54;20941;-69
2021/11/07 00:16:46;;;;;;;14.25;7.85;;;9.50;74.70;;;;;;2563267;53;21012;-69
2021/11/07 00:19:18;;;;;;;14.45;6.82;;;9.60;74.90;;;;;;2578200;53;21496;-69
2021/11/07 00:27:25;;;;;;;13.43;6.80;;;9.60;74.70;;;;;;2341867;54;21000;-69
2021/11/07 00:44:34;;;;;;;14.65;9.07;;;9.60;73.80;;;;;;2327308;54;20989;-69
2021/11/07 00:47:13;;;;;;;15.85;9.27;;;9.60;73.80;;;;;;2586262;53;20953;-69
2021/11/07 00:49:44;;;;;;;13.60;8.43;;;9.60;73.80;;;;;;2328540;54;20949;-69
2021/11/07 00:59:51;;;;;;;12.30;6.43;;;9.60;73.90;;;;;;2322527;55;20949;-69
2021/11/07 01:02:21;;;;;;;14.68;7.93;;;9.60;73.90;;;;;;2587935;53;21005;-69
2021/11/07 01:04:49;;;;;;;14.55;8.95;;;9.60;74.00;;;;;;2345469;54;20996;-69
2021/11/07 01:07:16;;;;;;;17.90;9.98;;;9.60;74.10;;;;;;2320210;54;21843;-69
2021/11/07 01:09:43;;;;;;;14.02;8.45;;;9.60;74.00;;;;;;2319161;54;20957;-69
2021/11/07 01:12:09;;;;;;;13.48;8.00;;;9.60;74.10;;;;;;2569368;53;20985;-69
2021/11/07 01:14:37;;;;;;;17.42;9.40;;;9.60;74.20;;;;;;2334942;54;20996;-69
2021/11/07 01:17:04;;;;;;;18.58;10.38;;;9.60;74.20;;;;;;2563867;53;20957;-69
2021/11/07 01:19:36;;;;;;;14.73;9.23;;;9.60;74.20;;;;;;2585685;53;20937;-69
2021/11/07 01:22:06;;;;;;;18.12;9.70;;;9.60;74.20;;;;;;2584569;53;21050;-69
2021/11/07 01:24:40;;;;;;;17.20;9.98;;;9.60;74.20;;;;;;2322285;54;20929;-69
2021/11/07 01:32:11;;;;;;;16.17;7.80;;;9.60;74.20;;;;;;2323421;54;21053;-69
2021/11/07 01:34:52;;;;;;;16.05;8.48;;;9.70;74.20;;;;;;2586799;53;20957;-69
2021/11/07 01:37:25;;;;;;;16.12;8.35;;;9.70;74.30;;;;;;2343837;54;21088;-69
2021/11/07 01:39:58;;;;;;;15.45;8.73;;;9.70;74.50;;;;;;2559440;53;21008;-69
2021/11/07 01:42:33;;;;;;;15.00;8.38;;;9.70;74.50;;;;;;2328818;54;21544;-69
2021/11/07 01:45:05;;;;;;;14.38;7.60;;;9.70;74.40;;;;;;2338762;54;21079;-69
2021/11/07 01:47:36;;;;;;;12.27;6.87;;;9.70;74.30;;;;;;2341778;54;21789;-69
2021/11/07 01:50:06;;;;;;;13.37;7.37;;;9.70;74.30;;;;;;2587581;53;20953;-69
2021/11/07 01:52:39;;;;;;;13.68;7.60;;;9.70;74.20;;;;;;2327050;54;21053;-69
2021/11/07 01:55:06;;;;;;;16.00;8.80;;;9.70;74.20;;;;;;2563469;53;21013;-68
2021/11/07 01:57:33;;;;;;;17.58;8.15;;;9.70;74.20;;;;;;2328277;54;20977;-69
2021/11/07 02:00:14;;;;;;;15.55;8.20;;;9.70;74.10;;;;;;2575581;53;21110;-69
2021/11/07 02:02:41;;;;;;;14.65;8.30;;;9.80;73.80;;;;;;2321463;54;21016;-69
2021/11/07 02:05:08;;;;;;;15.00;8.02;;;9.70;73.90;;;;;;2587246;53;21013;-69
2021/11/07 02:07:34;;;;;;;13.40;7.93;;;9.70;73.90;;;;;;2565707;53;20985;-69
2021/11/07 02:10:05;;;;;;;17.23;8.30;;;9.70;73.80;;;;;;2561202;53;20933;-69
2021/11/07 02:12:31;;;;;;;13.88;7.30;;;9.70;73.70;;;;;;2318062;54;20985;-69
2021/11/07 02:14:57;;;;;;;13.35;7.57;;;9.70;73.70;;;;;;2582977;53;21449;-69
2021/11/07 02:17:24;;;;;;;16.27;7.53;;;9.70;73.70;;;;;;2321679;54;21019;-68
2021/11/07 02:19:51;;;;;;;13.85;7.65;;;9.70;73.60;;;;;;2565643;53;21395;-69
2021/11/07 02:22:19;;;;;;;13.40;7.93;;;9.70;73.50;;;;;;2568311;53;21147;-69
2021/11/07 02:24:45;;;;;;;15.13;8.48;;;9.70;73.50;;;;;;2555024;53;21469;-69
2021/11/07 02:27:11;;;;;;;16.95;8.93;;;9.70;73.40;;;;;;2565483;53;21025;-69
2021/11/07 02:29:39;;;;;;;14.82;8.10;;;9.70;73.40;;;;;;2568565;53;20956;-69
2021/11/07 02:32:05;;;;;;;13.88;7.25;;;9.70;73.40;;;;;;2340315;54;20930;-69
2021/11/07 02:34:32;;;;;;;16.37;9.35;;;9.60;73.40;;;;;;2588000;53;20981;-69
2021/11/07 02:37:02;;;;;;;17.70;8.95;;;9.60;73.40;;;;;;2340135;54;21132;-69
2021/11/07 02:39:29;;;;;;;16.55;8.88;;;9.60;73.30;;;;;;2540665;53;21076;-69
2021/11/07 02:41:57;;;;;;;16.35;9.38;;;9.60;73.40;;;;;;2334392;54;20976;-69
2021/11/07 02:44:40;;;;;;;15.05;8.27;;;9.60;73.50;;;;;;2573257;53;21019;-69
2021/11/07 02:47:08;;;;;;;13.43;7.65;;;9.60;73.30;;;;;;2339519;54;21033;-69
2021/11/07 02:49:35;;;;;;;12.50;7.50;;;9.60;73.60;;;;;;2568368;53;21359;-69
2021/11/07 02:52:01;;;;;;;15.65;8.85;;;9.60;73.70;;;;;;2331137;54;20965;-69
2021/11/07 02:54:29;;;;;;;15.02;8.73;;;9.60;73.70;;;;;;2559771;53;21492;-69
2021/11/07 02:56:56;;;;;;;15.95;8.57;;;9.60;73.70;;;;;;2328358;54;21039;-70
2021/11/07 02:59:39;;;;;;;14.50;8.48;;;9.60;73.70;;;;;;2328827;54;20913;-69
2021/11/07 03:02:09;;;;;;;15.60;8.88;;;9.60;73.70;;;;;;2342006;54;21722;-69
2021/11/07 03:04:36;;;;;;;15.93;9.00;;;9.60;73.70;;;;;;2341567;54;21485;-69
2021/11/07 03:07:05;;;;;;;17.20;9.20;;;9.60;73.70;;;;;;2535253;53;20953;-69
2021/11/07 03:09:33;;;;;;;16.48;8.90;;;9.60;73.70;;;;;;2579634;53;20926;-68
2021/11/07 03:12:01;;;;;;;15.27;8.70;;;9.60;73.60;;;;;;2338264;54;21040;-69
2021/11/07 03:14:33;;;;;;;18.92;10.30;;;9.60;73.60;;;;;;2328356;54;20968;-69
2021/11/07 03:16:59;;;;;;;20.17;10.52;;;9.60;73.50;;;;;;2339697;54;21061;-69
2021/11/07 03:19:26;;;;;;;22.13;11.73;;;9.50;73.40;;;;;;2563747;53;21735;-69
2021/11/07 03:21:53;;;;;;;23.62;12.27;;;9.60;73.50;;;;;;2585219;53;21042;-69
2021/11/07 03:24:20;;;;;;;28.85;15.00;;;9.50;73.50;;;;;;2318922;54;20953;-69
2021/11/07 03:26:49;;;;;;;29.35;14.98;;;9.50;73.50;;;;;;2339309;54;21009;-68
2021/11/07 03:29:16;;;;;;;32.83;16.85;;;9.50;73.40;;;;;;2318548;54;21465;-69
2021/11/07 03:32:02;;;;;;;29.75;14.70;;;9.50;73.50;;;;;;2329094;54;21776;-69
2021/11/07 03:34:34;;;;;;;30.52;15.55;;;9.50;73.60;;;;;;2556424;53;20969;-70
2021/11/07 03:37:03;;;;;;;30.27;15.45;;;9.50;73.60;;;;;;2323835;54;21393;-69
2021/11/07 03:39:33;;;;;;;31.17;16.05;;;9.50;73.50;;;;;;2568941;53;21488;-69
2021/11/07 03:42:00;;;;;;;29.85;14.80;;;9.50;73.20;;;;;;2578610;53;20949;-69
2021/11/07 03:44:27;;;;;;;30.37;15.82;;;9.50;73.30;;;;;;2586818;53;20993;-69
2021/11/07 03:46:54;;;;;;;31.50;15.43;;;9.50;73.20;;;;;;2320719;54;20914;-68
2021/11/07 03:49:21;;;;;;;32.22;16.15;;;9.40;73.00;;;;;;2566126;53;21520;-69
2021/11/07 03:51:48;;;;;;;27.15;13.55;;;9.40;73.10;;;;;;2336299;54;20970;-69
2021/11/07 03:54:15;;;;;;;24.05;13.90;;;9.40;73.10;;;;;;2543800;53;21053;-69
2021/11/07 03:56:41;;;;;;;27.45;14.30;;;9.40;73.10;;;;;;2327734;54;20926;-69
2021/11/07 03:59:08;;;;;;;27.58;14.13;;;9.30;73.10;;;;;;2569371;53;21025;-68
2021/11/07 04:01:36;;;;;;;28.60;13.98;;;9.30;73.10;;;;;;2334448;54;21005;-68
2021/11/07 04:04:04;;;;;;;26.65;14.45;;;9.30;73.20;;;;;;2563936;53;20949;-69
2021/11/07 04:06:30;;;;;;;28.40;14.65;;;9.30;73.10;;;;;;2583815;53;21430;-69
2021/11/07 04:08:57;;;;;;;30.55;15.30;;;9.30;73.10;;;;;;2565192;53;20937;-69
2021/11/07 04:11:24;;;;;;;27.10;13.40;;;9.20;73.00;;;;;;2328782;54;21754;-69
2021/11/07 04:13:50;;;;;;;26.70;13.00;;;9.20;73.10;;;;;;2574328;53;21005;-69
2021/11/07 04:16:16;;;;;;;26.55;13.80;;;9.20;73.20;;;;;;2588460;53;20966;-69
2021/11/07 04:18:44;;;;;;;25.90;12.85;;;9.20;73.20;;;;;;2576819;53;20961;-69
2021/11/07 04:21:11;;;;;;;25.27;11.90;;;9.20;73.20;;;;;;2329738;54;20960;-69
2021/11/07 04:23:38;;;;;;;23.95;12.23;;;9.20;73.20;;;;;;2342191;54;21013;-68
2021/11/07 04:26:05;;;;;;;26.77;12.40;;;9.20;73.20;;;;;;2342200;54;20941;-69
2021/11/07 04:28:31;;;;;;;25.55;11.85;;;9.10;73.10;;;;;;2587340;53;20945;-69
2021/11/07 04:30:58;;;;;;;25.00;12.40;;;9.10;73.10;;;;;;2323050;54;20940;-69
2021/11/07 04:33:24;;;;;;;23.95;12.63;;;9.10;73.20;;;;;;2318191;54;20957;-69
2021/11/07 04:35:51;;;;;;;25.33;13.48;;;9.10;73.20;;;;;;2588623;53;20941;-69
2021/11/07 04:38:18;;;;;;;25.30;12.30;;;9.10;73.40;;;;;;2341975;54;20925;-69
2021/11/07 04:40:44;;;;;;;28.10;13.43;;;9.10;73.30;;;;;;2323498;54;21085;-68
2021/11/07 04:43:11;;;;;;;25.77;12.68;;;9.10;73.20;;;;;;2339935;54;21576;-69
2021/11/07 04:45:37;;;;;;;24.87;12.85;;;9.10;73.20;;;;;;2588483;53;20996;-69
2021/11/07 04:48:04;;;;;;;25.45;12.88;;;9.10;73.30;;;;;;2588095;53;20996;-69
2021/11/07 04:50:30;;;;;;;23.83;12.18;;;9.10;73.20;;;;;;2335444;54;20964;-69
2021/11/07 04:53:04;;;;;;;21.52;11.02;;;9.00;73.10;;;;;;2327582;54;22064;-69
2021/11/07 04:55:32;;;;;;;22.27;11.52;;;9.00;73.20;;;;;;2326764;54;20925;-69
2021/11/07 04:57:59;;;;;;;27.10;13.52;;;9.00;73.30;;;;;;2341739;54;21228;-69
2021/11/07 05:00:26;;;;;;;25.20;12.10;;;9.00;73.40;;;;;;2332478;54;20993;-68
2021/11/07 05:02:53;;;;;;;21.90;11.63;;;9.00;73.30;;;;;;2546269;53;21394;-69
2021/11/07 05:05:20;;;;;;;24.92;13.05;;;9.00;73.20;;;;;;2341773;54;21379;-69
2021/11/07 05:07:46;;;;;;;24.27;12.35;;;9.00;73.20;;;;;;2569892;53;21759;-68
2021/11/07 05:10:14;;;;;;;21.20;11.27;;;9.00;73.20;;;;;;2323065;54;21727;-68
2021/11/07 05:12:41;;;;;;;23.38;12.00;;;9.00;73.30;;;;;;2333439;54;21029;-69
2021/11/07 05:15:07;;;;;;;23.25;11.32;;;9.00;73.30;;;;;;2587690;53;20946;-68
2021/11/07 05:17:34;;;;;;;21.70;11.45;;;9.00;73.40;;;;;;2341759;54;20921;-69
2021/11/07 05:20:01;;;;;;;20.30;10.57;;;9.00;73.50;;;;;;2339089;54;21544;-69
2021/11/07 05:22:28;;;;;;;20.70;11.02;;;8.90;73.40;;;;;;2318623;54;21076;-69
2021/11/07 05:24:54;;;;;;;18.92;9.93;;;9.00;73.60;;;;;;2559758;53;20942;-68
2021/11/07 05:27:21;;;;;;;21.92;10.90;;;9.00;73.60;;;;;;2324368;54;21406;-68
2021/11/07 05:29:48;;;;;;;21.60;10.68;;;9.00;73.60;;;;;;2339547;54;20956;-69
2021/11/07 05:32:14;;;;;;;25.02;12.90;;;9.00;73.70;;;;;;2341166;54;20961;-69
2021/11/07 05:34:41;;;;;;;23.38;12.15;;;9.00;73.50;;;;;;2323781;54;21075;-70
2021/11/07 05:37:08;;;;;;;22.77;12.10;;;9.00;73.50;;;;;;2318440;54;21020;-69
2021/11/07 05:39:38;;;;;;;24.05;12.13;;;9.00;73.60;;;;;;2326911;54;20945;-67
2021/11/07 05:42:04;;;;;;;23.23;13.02;;;9.00;73.30;;;;;;2582817;53;20965;-69
2021/11/07 05:44:30;;;;;;;24.35;13.05;;;9.00;73.30;;;;;;2341033;54;21492;-68
2021/11/07 05:46:57;;;;;;;24.58;13.02;;;9.00;73.30;;;;;;2588214;53;21473;-69
2021/11/07 05:49:24;;;;;;;22.62;12.25;;;9.00;73.30;;;;;;2341620;54;20981;-70
2021/11/07 05:51:50;;;;;;;24.25;12.95;;;8.90;73.20;;;;;;2340978;54;20973;-69
2021/11/07 05:54:17;;;;;;;22.05;12.10;;;8.90;73.10;;;;;;2323273;54;20968;-68
2021/11/07 05:56:43;;;;;;;22.10;12.05;;;8.90;73.10;;;;;;2340281;54;21012;-69
2021/11/07 05:59:10;;;;;;;26.17;14.45;;;8.90;73.10;;;;;;2337339;54;20957;-68
2021/11/07 06:01:36;;;;;;;25.33;13.55;;;8.90;72.80;;;;;;2321476;54;20977;-69
2021/11/07 06:04:03;;;;;;;21.30;11.90;;;8.90;72.70;;;;;;2330208;54;20968;-68
2021/11/07 06:06:30;;;;;;;21.60;12.23;;;8.90;72.60;;;;;;2526083;54;20992;-69
2021/11/07 06:08:58;;;;;;;19.15;10.88;;;8.80;72.50;;;;;;2328633;54;20977;-67
2021/11/07 06:11:24;;;;;;;16.73;9.63;;;8.80;72.60;;;;;;2330390;54;21386;-68
2021/11/07 06:13:51;;;;;;;15.93;9.23;;;8.80;72.70;;;;;;2341804;54;21758;-68
2021/11/07 06:16:17;;;;;;;16.98;9.15;;;8.80;72.90;;;;;;2326742;54;20964;-68
2021/11/07 06:18:43;;;;;;;19.05;9.57;;;8.80;72.90;;;;;;2333817;53;20959;-68
2021/11/07 06:21:10;;;;;;;16.35;9.35;;;8.70;72.70;;;;;;2561283;53;20961;-68
2021/11/07 06:23:40;;;;;;;17.02;9.15;;;8.70;72.70;;;;;;2326375;54;21065;-68
2021/11/07 06:26:09;;;;;;;18.33;10.07;;;8.70;72.60;;;;;;2339840;54;20973;-68
2021/11/07 06:28:36;;;;;;;17.37;9.48;;;8.80;72.60;;;;;;2555461;53;21013;-68
2021/11/07 06:31:05;;;;;;;17.00;9.15;;;8.70;72.50;;;;;;2324132;54;20949;-68
2021/11/07 06:33:32;;;;;;;18.55;9.27;;;8.60;72.40;;;;;;2335704;54;21104;-69
2021/11/07 06:35:58;;;;;;;18.30;9.95;;;8.60;72.50;;;;;;2568784;53;20968;-69
2021/11/07 06:38:25;;;;;;;17.05;9.30;;;8.60;72.50;;;;;;2321908;54;20932;-68
2021/11/07 06:40:59;;;;;;;16.12;8.63;;;8.60;72.50;;;;;;2342206;54;21874;-69
2021/11/07 06:43:26;;;;;;;17.90;9.73;;;8.60;72.70;;;;;;2331242;54;22009;-68
2021/11/07 06:45:53;;;;;;;14.45;8.45;;;8.50;72.80;;;;;;2322641;54;20948;-69
2021/11/07 06:48:23;;;;;;;15.05;8.32;;;8.50;72.90;;;;;;2326898;54;20989;-68
2021/11/07 06:50:49;;;;;;;16.40;9.55;;;8.50;73.00;;;;;;2562343;53;20921;-69
2021/11/07 06:53:17;;;;;;;16.65;9.18;;;8.50;73.20;;;;;;2342665;54;20992;-69
2021/11/07 06:55:43;;;;;;;17.23;9.27;;;8.50;73.20;;;;;;2335297;54;20965;-68
2021/11/07 06:58:10;;;;;;;16.77;9.05;;;8.50;73.30;;;;;;2322861;54;20973;-69
2021/11/07 07:00:43;;;;;;;15.05;8.65;;;8.50;73.30;;;;;;2330330;54;20969;-69
2021/11/07 07:03:09;;;;;;;16.20;9.00;;;8.50;73.30;;;;;;2300642;55;21998;-69
2021/11/07 07:05:36;;;;;;;17.92;9.90;;;8.50;73.30;;;;;;2342339;54;21844;-68
2021/11/07 07:08:17;;;;;;;17.17;8.90;;;8.50;73.30;;;;;;2563184;53;21001;-69
2021/11/07 07:10:56;;;;;;;14.13;8.38;;;8.50;73.30;;;;;;2311967;55;21561;-69
2021/11/07 07:13:30;;;;;;;21.95;10.93;;;8.50;73.40;;;;;;2326061;54;21047;-68
2021/11/07 07:16:44;;;;;;;24.42;12.63;;;8.50;73.30;;;;;;2309957;54;21691;-70
2021/11/07 07:19:34;;;;;;;23.70;12.35;;;8.50;73.00;;;;;;2343513;54;20921;-68
2021/11/07 07:22:37;;;;;;;25.90;13.85;;;8.50;72.70;;;;;;2338448;54;21947;-69
2021/11/07 07:33:59;;;;;;;26.48;13.93;;;8.40;72.60;;;;;;2347697;54;20977;-69
2021/11/07 07:36:26;;;;;;;28.23;14.50;;;8.40;72.80;;;;;;2343343;54;21769;-69
2021/11/07 07:38:52;;;;;;;28.23;14.50;;;8.40;73.00;;;;;;2561835;53;20921;-69
2021/11/07 07:41:18;;;;;;;24.48;13.27;;;8.30;73.40;;;;;;2333103;54;20948;-69
2021/11/07 07:43:45;;;;;;;25.25;13.30;;;8.30;73.50;;;;;;2324526;54;20988;-69
2021/11/07 07:46:14;;;;;;;27.15;13.10;;;8.30;73.60;;;;;;2344787;54;21021;-70
2021/11/07 07:48:42;;;;;;;25.83;14.20;;;8.30;73.70;;;;;;2323863;54;21512;-69
2021/11/07 07:51:09;;;;;;;27.55;13.13;;;8.40;73.90;;;;;;2335637;54;20961;-68
2021/11/07 07:53:36;;;;;;;23.87;12.52;;;8.40;73.90;;;;;;2326919;54;20964;-69
2021/11/07 07:56:03;;;;;;;24.85;12.82;;;8.40;74.00;;;;;;2324962;54;21000;-68
2021/11/07 07:58:29;;;;;;;22.08;12.20;;;8.50;74.20;;;;;;2557026;53;21838;-69
2021/11/07 08:00:58;;;;;;;24.80;13.35;;;8.50;74.20;;;;;;2339312;54;20996;-69
2021/11/07 08:03:25;;;;;;;23.98;12.37;;;8.50;74.10;;;;;;2343137;54;21505;-68
2021/11/07 08:05:51;;;;;;;23.75;11.80;;;8.50;74.30;;;;;;2590641;53;20917;-68
2021/11/07 08:08:18;;;;;;;23.08;11.82;;;8.60;74.50;;;;;;2316939;55;20945;-69
2021/11/07 08:10:45;;;;;;;22.08;11.93;;;8.60;74.50;;;;;;2329530;54;22094;-69
2021/11/07 08:13:12;;;;;;;20.90;11.23;;;8.60;74.60;;;;;;2327802;54;21032;-69
2021/11/07 08:15:38;;;;;;;20.20;10.63;;;8.70;74.70;;;;;;2571702;53;20913;-68
2021/11/07 08:18:05;;;;;;;20.55;10.93;;;8.70;74.70;;;;;;2345330;54;20997;-70
2021/11/07 08:20:32;;;;;;;21.05;10.73;;;8.80;74.60;;;;;;2322254;54;20988;-69
2021/11/07 08:23:03;;;;;;;21.52;10.82;;;8.80;74.60;;;;;;2573346;53;20984;-69
2021/11/07 08:25:30;;;;;;;22.20;12.20;;;8.80;74.30;;;;;;2577242;53;20960;-69
2021/11/07 08:28:01;;;;;;;19.60;10.18;;;8.90;74.20;;;;;;2335759;54;20993;-69
2021/11/07 08:30:31;;;;;;;21.48;11.45;;;8.90;74.20;;;;;;2312897;55;20945;-69
2021/11/07 08:32:57;;;;;;;21.90;12.20;;;8.90;74.30;;;;;;2561766;53;20949;-70
2021/11/07 08:35:24;;;;;;;18.48;10.35;;;8.90;74.10;;;;;;2343074;54;21656;-70
2021/11/07 08:38:01;;;;;;;18.02;10.82;;;8.90;74.00;;;;;;2569433;53;21830;-68
2021/11/07 08:40:35;;;;;;;18.42;11.38;;;9.00;74.00;;;;;;2333420;54;21028;-68
2021/11/07 08:43:08;;;;;;;17.80;10.88;;;9.00;74.00;;;;;;2329438;54;20984;-70
2021/11/07 09:07:40;;;;;;;15.30;8.60;;;9.30;74.20;;;;;;2334437;54;22575;-69
2021/11/07 09:10:18;;;;;;;15.25;8.15;;;9.40;74.50;;;;;;2557851;53;21857;-69
2021/11/07 09:12:45;;;;;;;18.10;9.65;;;9.40;74.60;;;;;;2341555;54;20981;-69
2021/11/07 09:15:18;;;;;;;19.12;9.85;;;9.50;74.60;;;;;;2326544;54;21012;-69
2021/11/07 09:17:47;;;;;;;14.80;8.93;;;9.50;74.30;;;;;;2321306;54;20989;-69
2021/11/07 09:20:19;;;;;;;17.02;9.25;;;9.50;74.30;;;;;;2324688;54;20924;-69
2021/11/07 09:23:03;;;;;;;13.50;7.75;;;9.60;74.50;;;;;;2322707;54;21450;-69
2021/11/07 09:25:42;;;;;;;16.12;8.23;;;9.60;74.40;;;;;;2324170;54;20992;-69
2021/11/07 09:28:16;;;;;;;15.63;8.52;;;9.60;74.50;;;;;;2322534;55;20941;-69
2021/11/07 09:31:04;;;;;;;16.23;9.30;;;9.70;74.50;;;;;;2335524;54;21017;-69
2021/11/07 09:34:06;;;;;;;13.60;6.95;;;9.70;74.50;;;;;;2333974;54;21554;-70
2021/11/07 09:36:40;;;;;;;13.18;8.48;;;9.80;75.50;;;;;;2476888;53;1324565;-68
2021/11/07 09:39:20;;;;;;;10.85;6.80;;;9.80;76.30;;;;;;2575564;53;21023;-69
2021/11/07 09:42:13;;;;;;;10.63;5.87;;;9.90;75.40;;;;;;2561173;53;20981;-68
2021/11/07 09:44:42;;;;;;;9.55;5.28;;;10.00;74.70;;;;;;2554802;53;21504;-69
2021/11/07 09:47:14;;;;;;;9.70;5.85;;;10.10;74.80;;;;;;2323176;55;21092;-69
2021/11/07 09:49:47;;;;;;;8.05;4.80;;;10.20;74.90;;;;;;2582446;53;21490;-70
2021/11/07 09:52:20;;;;;;;8.90;5.07;;;10.30;74.90;;;;;;2327094;54;20945;-69
2021/11/07 09:54:51;;;;;;;10.48;5.45;;;10.40;74.70;;;;;;2343216;54;20973;-70
2021/11/07 09:57:22;;;;;;;7.35;4.43;;;10.50;74.70;;;;;;2328560;54;20949;-69
2021/11/07 09:59:58;;;;;;;8.65;5.03;;;10.60;74.80;;;;;;2337438;54;20925;-68
2021/11/07 10:02:28;;;;;;;8.02;4.55;;;10.60;74.40;;;;;;2342065;54;20947;-69
2021/11/07 10:04:58;;;;;;;8.13;4.75;;;10.70;74.40;;;;;;2586963;53;20917;-70
2021/11/07 10:07:27;;;;;;;8.23;4.47;;;10.80;74.50;;;;;;2320109;54;20957;-69
2021/11/07 10:09:59;;;;;;;7.37;4.20;;;10.90;74.40;;;;;;2344500;54;20924;-69
2021/11/07 10:13:02;;;;;;;7.50;4.15;;;11.00;74.50;;;;;;2319229;54;21080;-70
2021/11/07 10:16:54;;;;;;;5.90;3.50;;;11.00;74.70;;;;;;2560128;53;20982;-70
2021/11/07 10:19:34;;;;;;;8.38;4.30;;;11.20;74.90;;;;;;2587958;53;20945;-70
2021/11/07 10:22:03;;;;;;;9.03;4.70;;;11.20;74.70;;;;;;2587054;53;21528;-70
2021/11/07 10:24:35;;;;;;;7.35;4.57;;;11.30;74.50;;;;;;2331757;54;21024;-70
2021/11/07 10:27:12;;;;;;;7.57;4.50;;;11.40;74.60;;;;;;2577141;53;20921;-70
2021/11/07 10:29:44;;;;;;;6.95;4.72;;;11.40;74.20;;;;;;2578080;53;21017;-71
2021/11/07 10:32:41;;;;;;;7.45;4.53;;;11.50;74.00;;;;;;2329310;54;21060;-70
2021/11/07 10:36:55;;;;;;;8.35;4.80;;;11.50;73.00;;;;;;2341602;54;21877;-70
2021/11/07 10:54:20;;;;;;;6.32;3.37;;;11.90;74.00;;;;;;2565108;53;21017;-69
2021/11/07 10:57:15;;;;;;;5.53;3.37;;;11.90;73.80;;;;;;2329516;54;20972;-70
2021/11/07 10:59:42;;;;;;;8.10;4.32;;;12.00;74.00;;;;;;2328640;54;20960;-70
2021/11/07 11:02:38;;;;;;;6.93;3.92;;;12.10;75.20;;;;;;2319131;54;21020;-70
2021/11/07 11:05:15;;;;;;;7.18;3.87;;;12.30;74.60;;;;;;2579700;53;20950;-70
2021/11/07 11:07:53;;;;;;;8.00;4.12;;;12.30;75.00;;;;;;2325623;54;20985;-69
2021/11/07 11:10:24;;;;;;;5.62;3.35;;;12.40;74.20;;;;;;2341277;54;21809;-69
2021/11/07 11:17:06;;;;;;;6.20;3.53;;;12.60;73.20;;;;;;2343977;54;21480;-70
2021/11/07 11:19:56;;;;;;;6.03;3.55;;;12.60;75.10;;;;;;2321748;54;20913;-70
2021/11/07 11:25:58;;;;;;;6.32;4.18;;;12.80;75.60;;;;;;2333491;54;21012;-71
2021/11/07 11:28:37;;;;;;;5.95;3.83;;;12.90;74.50;;;;;;2323412;54;20997;-71
2021/11/07 11:31:16;;;;;;;5.30;3.37;;;13.00;74.20;;;;;;2588267;53;21001;-71
2021/11/07 11:33:50;;;;;;;6.22;3.30;;;13.00;74.00;;;;;;2322556;54;20925;-70
2021/11/07 11:36:26;;;;;;;8.20;3.95;;;13.10;74.20;;;;;;2342207;54;20972;-71
2021/11/07 11:38:58;;;;;;;5.95;3.35;;;13.10;73.40;;;;;;2342121;54;21021;-70
2021/11/07 11:41:38;;;;;;;5.82;3.30;;;13.10;73.60;;;;;;2325738;54;20953;-71
2021/11/07 11:44:05;;;;;;;5.97;3.22;;;13.10;73.10;;;;;;2579152;53;20944;-71
2021/11/07 11:46:47;;;;;;;6.87;3.30;;;13.20;72.80;;;;;;2339565;54;21644;-71
2021/11/07 12:01:04;;;;;;;4.47;2.42;;;13.20;72.30;;;;;;2587356;53;20981;-70
2021/11/07 12:04:05;;;;;;;3.85;2.40;;;13.20;71.10;;;;;;2342170;54;21012;-70
2021/11/07 12:09:43;;;;;;;4.87;2.78;;;13.20;72.40;;;;;;2569813;53;21072;-70
2021/11/07 12:12:20;;;;;;;5.93;3.08;;;13.20;72.10;;;;;;2559783;53;20942;-70
2021/11/07 12:18:09;;;;;;;5.65;2.87;;;13.30;71.40;;;;;;2342397;54;20984;-71
2021/11/07 12:20:38;;;;;;;6.00;3.58;;;13.30;72.60;;;;;;2330975;54;20964;-70
2021/11/07 12:23:30;;;;;;;6.00;2.80;;;13.30;72.00;;;;;;2322497;54;21008;-70
2021/11/07 12:25:57;;;;;;;5.55;2.80;;;13.40;70.50;;;;;;2341978;54;21020;-70
2021/11/07 12:28:43;;;;;;;4.35;2.78;;;13.40;71.90;;;;;;2342245;54;20985;-70
2021/11/07 12:31:10;;;;;;;6.05;2.60;;;13.40;70.90;;;;;;2341777;54;20946;-71
2021/11/07 12:33:55;;;;;;;4.68;2.85;;;13.40;72.30;;;;;;2342528;54;21032;-71
2021/11/07 12:36:33;;;;;;;4.37;2.53;;;13.50;71.00;;;;;;2588476;53;21700;-71
2021/11/07 12:41:44;;;;;;;4.43;2.40;;;13.50;72.10;;;;;;2567984;53;20993;-70
2021/11/07 12:44:51;;;;;;;4.62;2.67;;;13.50;72.10;;;;;;2317689;54;20989;-70
2021/11/07 12:47:22;;;;;;;5.87;2.80;;;13.50;70.00;;;;;;2341928;54;20929;-70
2021/11/07 12:50:00;;;;;;;6.22;3.30;;;13.50;72.10;;;;;;2588427;53;21008;-71
2021/11/07 12:52:27;;;;;;;4.60;2.65;;;13.60;70.90;;;;;;2342847;54;21108;-70
2021/11/07 12:54:53;;;;;;;6.03;3.28;;;13.60;72.10;;;;;;2320033;54;20945;-70
2021/11/07 12:57:21;;;;;;;5.60;2.90;;;13.70;72.10;;;;;;2341883;54;20993;-70
2021/11/07 12:59:57;;;;;;;6.55;3.55;;;13.60;71.80;;;;;;2588676;53;20890;-70
2021/11/07 13:02:27;;;;;;;6.20;3.80;;;13.70;71.00;;;;;;2587881;53;20937;-70
2021/11/07 13:05:19;;;;;;;6.78;4.22;;;13.70;71.20;;;;;;2580860;53;20977;-71
2021/11/07 13:08:08;;;;;;;7.17;4.07;;;13.70;69.90;;;;;;2332406;54;21582;-69
2021/11/07 13:10:56;;;;;;;6.05;3.35;;;13.70;71.10;;;;;;2342075;54;20933;-71
2021/11/07 13:23:41;;;;;;;5.40;3.45;;;13.80;71.90;;;;;;2588244;53;20921;-71
2021/11/07 13:26:46;;;;;;;6.62;3.62;;;13.90;70.80;;;;;;2341987;54;20968;-70
2021/11/07 13:32:31;;;;;;;5.80;3.80;;;13.90;71.40;;;;;;2342043;54;20969;-70
2021/11/07 13:35:22;;;;;;;7.68;4.00;;;13.90;71.00;;;;;;2341656;54;21001;-69
2021/11/07 13:38:03;;;;;;;6.25;3.70;;;13.80;69.80;;;;;;2345723;54;20929;-70
2021/11/07 13:40:35;;;;;;;5.43;3.47;;;13.80;70.60;;;;;;2341665;54;21422;-70
2021/11/07 13:43:14;;;;;;;6.97;4.15;;;13.80;70.90;;;;;;2565090;53;20960;-70
2021/11/07 13:45:52;;;;;;;5.90;3.78;;;13.90;70.40;;;;;;2340850;54;21029;-70
2021/11/07 13:48:22;;;;;;;6.55;4.00;;;13.80;71.20;;;;;;2345472;54;21488;-69
2021/11/07 13:50:51;;;;;;;8.13;4.53;;;13.80;71.30;;;;;;2331972;54;20940;-70
2021/11/07 13:53:27;;;;;;;7.18;4.03;;;13.80;70.90;;;;;;2317630;55;20972;-70
2021/11/07 13:55:56;;;;;;;6.68;4.30;;;13.80;70.40;;;;;;2334446;54;20933;-70
2021/11/07 13:58:25;;;;;;;7.15;4.32;;;13.80;71.00;;;;;;2331505;54;20953;-70
2021/11/07 14:00:52;;;;;;;7.85;4.43;;;13.70;71.20;;;;;;2322887;54;21982;-69
2021/11/07 14:03:19;;;;;;;6.47;4.12;;;13.80;71.20;;;;;;2342006;54;20941;-70
2021/11/07 14:06:13;;;;;;;6.05;4.10;;;13.80;71.30;;;;;;2321872;54;21402;-70
2021/11/07 14:08:49;;;;;;;6.20;3.95;;;13.80;70.60;;;;;;2570773;53;20957;-70
2021/11/07 14:11:18;;;;;;;8.40;4.12;;;13.80;70.90;;;;;;2323696;54;22223;-70
2021/11/07 14:13:52;;;;;;;6.40;4.00;;;13.80;71.20;;;;;;2569447;53;20976;-70
2021/11/07 14:16:32;;;;;;;7.32;4.12;;;13.80;70.70;;;;;;2328671;54;21820;-70
2021/11/07 14:18:59;;;;;;;5.70;3.65;;;13.80;70.90;;;;;;2325948;54;20906;-70
2021/11/07 14:21:27;;;;;;;6.50;4.28;;;13.80;71.60;;;;;;2322726;54;21441;-70
2021/11/07 14:24:11;;;;;;;7.20;4.10;;;13.80;71.50;;;;;;2342079;54;20925;-70
2021/11/07 14:27:22;;;;;;;5.53;3.33;;;13.80;71.50;;;;;;2341816;54;20949;-70
2021/11/07 14:29:58;;;;;;;7.22;3.85;;;13.80;71.50;;;;;;2587878;53;20957;-69
2021/11/07 14:32:33;;;;;;;5.47;3.78;;;13.80;71.40;;;;;;2323334;54;21837;-71
2021/11/07 14:35:14;;;;;;;5.32;3.60;;;13.80;71.20;;;;;;2339126;54;21003;-70
2021/11/07 14:37:48;;;;;;;6.28;3.80;;;13.90;71.20;;;;;;2318130;54;20957;-71
2021/11/07 14:40:28;;;;;;;6.40;4.03;;;13.80;71.40;;;;;;2323206;54;20998;-70
2021/11/07 14:43:29;;;;;;;5.03;3.08;;;13.80;71.00;;;;;;2562388;53;20961;-70
2021/11/07 14:50:01;;;;;;;4.72;2.90;;;13.80;71.40;;;;;;2564948;53;20993;-70
2021/11/07 14:52:42;;;;;;;4.60;3.03;;;13.90;71.50;;;;;;2324774;54;20949;-70
2021/11/07 14:55:20;;;;;;;5.22;3.08;;;13.80;70.70;;;;;;2342118;54;21056;-70
2021/11/07 14:58:42;;;;;;;5.82;3.17;;;13.80;70.90;;;;;;2329227;54;21957;-70
2021/11/07 15:01:27;;;;;;;4.82;2.47;;;13.80;70.60;;;;;;2323906;54;20940;-70
2021/11/07 15:04:17;;;;;;;4.47;2.70;;;13.70;71.20;;;;;;2334662;54;21048;-69
2021/11/07 15:07:08;;;;;;;4.57;2.60;;;13.70;70.80;;;;;;2321951;54;20933;-70
2021/11/07 15:12:49;;;;;;;5.37;2.58;;;13.70;71.40;;;;;;2548252;53;21018;-70
2021/11/07 15:19:48;;;;;;;5.22;2.42;;;13.60;71.20;;;;;;2342303;54;21066;-70
2021/11/07 15:22:22;;;;;;;4.70;2.60;;;13.60;71.20;;;;;;2337743;54;21104;-70
2021/11/07 15:24:54;;;;;;;5.20;2.45;;;13.60;71.70;;;;;;2570995;53;21081;-70